Time;durP1;ratioP1;P1;durP2;ratioP2;P2;SDS_P1;SDS_P2;PMS_P1;PMS_P2;Temp;Humidity;BMP_temperature;BMP_pressure;BME280_temperature;BME280_humidity;BME280_pressure;Samples;Min_cycle;Max_cycle;Signal;HPM_P1;HPM_P2
2021/12/02 00:01:34;;;;;;;5.25;1.55;;;21.80;53.40;;;;;;5187338;28;20040;-46
2021/12/02 00:04:06;;;;;;;2.75;1.67;;;21.80;53.40;;;;;;5186697;28;20412;-53
2021/12/02 00:06:39;;;;;;;3.53;1.70;;;21.80;53.40;;;;;;5173932;28;20049;-50
2021/12/02 00:09:12;;;;;;;6.87;1.53;;;21.80;53.40;;;;;;5195738;28;20041;-47
2021/12/02 00:11:44;;;;;;;2.05;1.17;;;21.80;53.40;;;;;;5187478;28;20036;-52
2021/12/02 00:14:23;;;;;;;7.25;1.80;;;21.80;53.50;;;;;;5186930;28;20040;-47
2021/12/02 00:22:25;;;;;;;4.20;1.85;;;21.80;54.20;;;;;;5184718;28;20050;-53
2021/12/02 00:25:03;;;;;;;4.93;1.65;;;21.80;53.60;;;;;;5196636;28;20529;-54
2021/12/02 00:27:38;;;;;;;5.35;1.50;;;21.80;53.50;;;;;;5182033;28;20041;-54
2021/12/02 00:30:11;;;;;;;7.00;1.23;;;21.80;53.60;;;;;;5191238;28;20049;-49
2021/12/02 00:32:45;;;;;;;4.63;1.33;;;21.80;53.50;;;;;;5187688;28;20587;-46
2021/12/02 00:35:18;;;;;;;5.05;1.40;;;21.80;53.60;;;;;;5185478;28;20758;-47
2021/12/02 00:37:51;;;;;;;3.93;1.53;;;21.80;53.50;;;;;;5185882;28;20053;-55
2021/12/02 00:40:23;;;;;;;5.37;1.30;;;21.80;53.50;;;;;;5178368;28;20059;-56
2021/12/02 00:42:59;;;;;;;4.57;1.40;;;21.80;53.40;;;;;;5183928;28;23631;-48
2021/12/02 00:45:32;;;;;;;3.30;1.48;;;21.80;53.40;;;;;;5186313;28;20060;-50
2021/12/02 00:48:06;;;;;;;3.40;1.10;;;21.80;53.40;;;;;;5179174;28;20075;-49
2021/12/02 00:50:42;;;;;;;4.40;1.63;;;21.80;53.30;;;;;;5186259;28;20052;-54
2021/12/02 00:53:19;;;;;;;3.58;1.80;;;21.80;53.30;;;;;;5182191;28;20044;-56
2021/12/02 00:55:54;;;;;;;3.70;1.42;;;21.80;53.30;;;;;;5187646;28;21349;-47
2021/12/02 00:58:26;;;;;;;4.35;1.42;;;21.80;53.40;;;;;;5193540;28;20784;-49
2021/12/02 01:01:00;;;;;;;3.43;1.40;;;21.80;53.30;;;;;;5178885;28;20059;-50
2021/12/02 01:03:37;;;;;;;1.65;1.02;;;21.80;53.30;;;;;;5181581;28;20041;-55
2021/12/02 01:06:10;;;;;;;3.17;1.48;;;21.80;53.30;;;;;;5185429;28;20045;-53
2021/12/02 01:08:42;;;;;;;3.63;1.30;;;21.80;53.30;;;;;;5178497;28;20048;-53
2021/12/02 01:11:16;;;;;;;5.40;1.30;;;21.80;53.30;;;;;;5187201;28;20056;-50
2021/12/02 01:13:49;;;;;;;2.47;1.10;;;21.80;53.30;;;;;;5191884;28;20044;-57
2021/12/02 01:16:22;;;;;;;1.42;1.00;;;21.80;53.90;;;;;;5186819;28;20064;-52
2021/12/02 01:18:54;;;;;;;3.58;1.35;;;21.80;53.30;;;;;;5185012;28;20427;-53
2021/12/02 01:21:28;;;;;;;1.23;1.00;;;21.80;53.30;;;;;;5193814;28;20519;-52
2021/12/02 01:24:05;;;;;;;2.17;1.17;;;21.80;53.30;;;;;;5190659;28;20783;-56
2021/12/02 01:26:38;;;;;;;3.80;1.42;;;21.70;53.30;;;;;;5182367;28;20076;-48
2021/12/02 01:29:12;;;;;;;2.55;1.40;;;21.80;53.40;;;;;;5187040;28;20148;-47
2021/12/02 01:31:50;;;;;;;2.22;1.00;;;21.70;53.30;;;;;;5190976;28;20052;-47
2021/12/02 01:34:26;;;;;;;1.83;1.20;;;21.70;53.30;;;;;;5186191;28;20482;-48
2021/12/02 01:37:01;;;;;;;1.58;1.10;;;21.70;53.30;;;;;;5192811;28;21437;-55
2021/12/02 01:39:33;;;;;;;2.75;1.13;;;21.70;53.30;;;;;;5201919;22;20382;-50
2021/12/02 01:42:10;;;;;;;2.75;1.42;;;21.70;53.30;;;;;;5164560;28;20056;-52
2021/12/02 01:44:42;;;;;;;1.95;1.33;;;21.70;53.30;;;;;;5159442;28;20336;-52
2021/12/02 01:47:16;;;;;;;2.65;1.27;;;21.70;53.90;;;;;;5162232;28;20236;-47
2021/12/02 01:49:52;;;;;;;2.10;1.15;;;21.70;53.30;;;;;;5166931;28;20052;-58
2021/12/02 01:52:30;;;;;;;1.77;1.20;;;21.70;53.20;;;;;;5163343;28;20557;-56
2021/12/02 01:55:15;;;;;;;2.00;1.15;;;21.70;53.90;;;;;;5156139;28;20392;-46
2021/12/02 01:58:01;;;;;;;1.73;1.15;;;21.70;53.20;;;;;;5164512;28;20080;-54
2021/12/02 02:00:42;;;;;;;1.60;1.15;;;21.70;53.30;;;;;;5157399;28;26130;-51
2021/12/02 02:03:15;;;;;;;1.40;1.10;;;21.70;53.20;;;;;;5151402;28;20053;-48
2021/12/02 02:05:55;;;;;;;1.83;1.00;;;21.70;53.20;;;;;;5161013;28;20536;-47
2021/12/02 02:08:29;;;;;;;1.50;1.10;;;21.70;53.20;;;;;;5151400;28;20052;-54
2021/12/02 02:11:01;;;;;;;1.73;1.00;;;21.70;53.20;;;;;;5155965;28;20049;-50
2021/12/02 02:13:34;;;;;;;3.22;1.10;;;21.70;53.20;;;;;;5160929;28;20049;-55
2021/12/02 02:16:07;;;;;;;3.03;1.13;;;21.70;53.20;;;;;;5163778;28;20056;-49
2021/12/02 02:18:40;;;;;;;2.15;1.27;;;21.70;53.80;;;;;;5158086;28;20100;-46
2021/12/02 02:21:16;;;;;;;;;;;21.70;53.30;;;;;;5156785;28;20413;-49
2021/12/02 02:23:56;;;;;;;2.35;1.00;;;21.60;53.80;;;;;;5158231;28;20319;-52
2021/12/02 02:26:36;;;;;;;2.17;1.20;;;21.70;53.40;;;;;;5152628;28;20056;-50
2021/12/02 02:29:11;;;;;;;3.85;1.30;;;21.70;53.30;;;;;;5160382;28;20068;-49
2021/12/02 02:31:44;;;;;;;7.70;1.20;;;21.70;53.30;;;;;;5173292;28;20042;-52
2021/12/02 02:34:22;;;;;;;2.17;0.98;;;21.70;53.40;;;;;;5138360;28;20056;-54
2021/12/02 02:36:56;;;;;;;3.30;1.10;;;21.70;53.40;;;;;;5140607;28;20046;-51
2021/12/02 02:39:30;;;;;;;4.85;1.40;;;21.70;53.40;;;;;;5152558;28;20049;-53
2021/12/02 02:42:05;;;;;;;2.78;1.52;;;21.70;53.40;;;;;;5154336;28;20452;-48
2021/12/02 02:44:38;;;;;;;2.85;1.25;;;21.70;53.40;;;;;;5155391;28;20060;-50
2021/12/02 02:47:10;;;;;;;5.00;1.40;;;21.70;53.40;;;;;;5160918;28;20417;-54
2021/12/02 02:49:43;;;;;;;4.28;1.42;;;21.70;53.40;;;;;;5156680;28;20049;-51
2021/12/02 02:52:15;;;;;;;1.77;1.38;;;21.70;53.40;;;;;;5177352;28;20041;-48
2021/12/02 02:54:48;;;;;;;3.03;1.05;;;21.70;53.40;;;;;;5172827;28;20056;-51
2021/12/02 02:57:24;;;;;;;4.53;1.30;;;21.70;53.40;;;;;;5164206;28;21194;-54
2021/12/02 03:00:03;;;;;;;1.95;1.15;;;21.70;53.40;;;;;;5157068;28;20054;-51
2021/12/02 03:07:52;;;;;;;2.38;1.00;;;21.60;54.00;;;;;;5158227;28;20045;-54
2021/12/02 03:18:42;;;;;;;1.40;1.17;;;21.70;53.30;;;;;;5155366;28;20076;-49
2021/12/02 03:21:23;;;;;;;2.03;1.15;;;21.70;53.30;;;;;;5164995;28;20311;-47
2021/12/02 03:23:59;;;;;;;1.92;0.90;;;21.70;53.30;;;;;;5165407;28;20680;-47
2021/12/02 03:26:32;;;;;;;2.13;0.95;;;21.70;53.30;;;;;;5160422;28;20053;-51
2021/12/02 03:29:06;;;;;;;3.80;1.10;;;21.70;53.20;;;;;;5164616;28;20323;-49
2021/12/02 03:31:38;;;;;;;4.88;1.50;;;21.60;53.10;;;;;;5166373;28;20045;-49
2021/12/02 03:34:11;;;;;;;2.33;1.30;;;21.70;53.10;;;;;;5159175;28;20432;-49
2021/12/02 03:36:44;;;;;;;0.98;0.93;;;21.60;53.10;;;;;;5155431;28;20462;-48
2021/12/02 03:39:17;;;;;;;2.10;1.20;;;21.70;53.10;;;;;;5148865;28;20045;-52
2021/12/02 03:41:49;;;;;;;2.40;1.10;;;21.70;53.10;;;;;;5143847;28;20060;-49
2021/12/02 03:44:22;;;;;;;4.15;1.50;;;21.60;53.10;;;;;;5147780;28;20371;-51
2021/12/02 03:46:55;;;;;;;3.28;1.30;;;21.60;53.20;;;;;;5154486;28;20045;-51
2021/12/02 03:49:28;;;;;;;2.53;1.20;;;21.60;53.30;;;;;;5146958;28;20421;-53
2021/12/02 03:52:01;;;;;;;3.55;1.50;;;21.60;53.30;;;;;;5160269;28;20076;-54
2021/12/02 03:54:33;;;;;;;1.90;1.15;;;21.60;53.40;;;;;;5147966;28;20374;-49
2021/12/02 03:57:05;;;;;;;4.05;1.20;;;21.60;53.50;;;;;;5160872;28;20045;-48
2021/12/02 03:59:38;;;;;;;4.25;1.10;;;21.60;53.60;;;;;;5144458;28;20049;-46
2021/12/02 04:02:10;;;;;;;1.50;0.82;;;21.60;53.70;;;;;;5146851;28;20136;-48
2021/12/02 04:04:43;;;;;;;2.53;1.20;;;21.60;53.70;;;;;;5164014;28;20046;-49
2021/12/02 04:07:18;;;;;;;1.92;1.05;;;21.60;53.70;;;;;;5159318;28;20041;-52
2021/12/02 04:09:52;;;;;;;7.28;1.60;;;21.60;53.70;;;;;;5163873;28;20064;-46
2021/12/02 04:13:11;;;;;;;;;;;21.60;53.80;;;;;;5164027;28;20041;-48
2021/12/02 04:15:25;;;;;;;6.50;1.40;;;21.50;53.90;;;;;;5172827;28;20599;-49
2021/12/02 04:17:59;;;;;;;2.97;1.40;;;21.60;54.00;;;;;;5161825;28;20619;-52
2021/12/02 04:20:31;;;;;;;5.28;1.65;;;21.50;54.00;;;;;;5166069;28;20042;-48
2021/12/02 04:23:05;;;;;;;3.95;1.52;;;21.50;54.10;;;;;;5164342;28;20498;-50
2021/12/02 04:25:38;;;;;;;4.95;1.40;;;21.50;54.10;;;;;;5168461;28;20354;-56
2021/12/02 04:28:10;;;;;;;3.10;1.23;;;21.50;54.20;;;;;;5169897;28;20045;-51
2021/12/02 04:30:43;;;;;;;3.58;1.17;;;21.50;54.30;;;;;;5158717;28;20046;-55
2021/12/02 04:33:15;;;;;;;7.30;1.80;;;21.50;54.30;;;;;;5175792;28;20049;-49
2021/12/02 04:35:48;;;;;;;3.45;1.10;;;21.50;54.30;;;;;;5175438;28;20543;-55
2021/12/02 04:38:21;;;;;;;3.75;1.20;;;21.50;54.30;;;;;;5159874;28;20053;-48
2021/12/02 04:40:54;;;;;;;2.80;1.48;;;21.50;54.30;;;;;;5171296;28;20054;-52
2021/12/02 04:43:26;;;;;;;5.68;2.10;;;21.50;54.40;;;;;;5161935;28;20403;-51
2021/12/02 04:45:59;;;;;;;2.58;0.85;;;21.50;54.40;;;;;;5165676;28;20677;-49
2021/12/02 04:48:32;;;;;;;5.03;1.38;;;21.60;54.40;;;;;;5184618;28;20045;-49
2021/12/02 04:51:04;;;;;;;5.32;1.35;;;21.50;54.40;;;;;;5153702;28;20061;-49
2021/12/02 04:53:36;;;;;;;3.88;1.02;;;21.50;54.50;;;;;;5161080;28;20638;-51
2021/12/02 04:56:09;;;;;;;3.60;1.17;;;21.50;54.40;;;;;;5165801;28;20049;-56
2021/12/02 04:58:42;;;;;;;3.83;1.10;;;21.50;54.50;;;;;;5168455;28;20045;-49
2021/12/02 05:01:14;;;;;;;4.30;1.57;;;21.50;54.50;;;;;;5167179;28;20052;-49
2021/12/02 05:03:47;;;;;;;4.25;1.10;;;21.50;54.50;;;;;;5180924;28;20056;-57
2021/12/02 05:06:19;;;;;;;2.28;1.17;;;21.50;54.50;;;;;;5168805;28;20045;-55
2021/12/02 05:08:52;;;;;;;7.20;1.42;;;21.60;54.60;;;;;;5148314;28;20049;-56
2021/12/02 05:11:24;;;;;;;4.78;1.20;;;21.50;55.20;;;;;;5170178;28;20057;-49
2021/12/02 05:13:57;;;;;;;5.18;1.15;;;21.50;54.60;;;;;;5176052;28;20057;-48
2021/12/02 05:16:30;;;;;;;1.60;1.25;;;21.50;54.60;;;;;;5174335;28;20056;-53
2021/12/02 05:19:03;;;;;;;4.40;1.20;;;21.50;54.60;;;;;;5169342;28;20528;-48
2021/12/02 05:21:36;;;;;;;6.57;1.08;;;21.50;54.60;;;;;;5159096;28;20072;-56
2021/12/02 05:24:08;;;;;;;3.78;1.17;;;21.50;54.60;;;;;;5168091;28;20416;-49
2021/12/02 05:26:41;;;;;;;2.20;1.10;;;21.50;54.60;;;;;;5146894;28;20068;-51
2021/12/02 05:29:14;;;;;;;3.53;0.93;;;21.50;54.60;;;;;;5172945;28;20413;-56
2021/12/02 05:31:46;;;;;;;7.18;1.40;;;21.50;54.60;;;;;;5163954;28;20745;-49
2021/12/02 05:34:18;;;;;;;4.57;1.23;;;21.60;54.70;;;;;;5171302;28;20049;-48
2021/12/02 05:36:51;;;;;;;2.57;1.20;;;21.50;54.70;;;;;;5151662;28;20193;-46
2021/12/02 05:39:24;;;;;;;3.50;1.30;;;21.60;54.80;;;;;;5162171;28;20045;-49
2021/12/02 05:41:56;;;;;;;2.55;1.23;;;21.60;54.80;;;;;;5167927;28;20404;-48
2021/12/02 05:44:29;;;;;;;6.20;1.00;;;21.60;54.80;;;;;;5174892;28;20560;-48
2021/12/02 05:47:01;;;;;;;2.20;1.00;;;21.60;54.70;;;;;;5166265;28;20360;-47
2021/12/02 05:49:33;;;;;;;2.55;1.13;;;21.60;54.70;;;;;;5164968;28;20049;-50
2021/12/02 05:52:07;;;;;;;4.53;1.27;;;21.60;54.70;;;;;;5163903;28;20096;-58
2021/12/02 05:54:39;;;;;;;7.05;1.10;;;21.70;54.70;;;;;;5163899;28;20070;-52
2021/12/02 05:57:11;;;;;;;8.80;1.90;;;21.70;54.80;;;;;;5159663;28;20078;-48
2021/12/02 05:59:45;;;;;;;5.43;1.48;;;21.70;54.80;;;;;;5160248;28;20045;-49
2021/12/02 06:02:17;;;;;;;7.93;1.50;;;21.70;54.80;;;;;;5157731;28;20052;-55
2021/12/02 06:04:53;;;;;;;16.13;1.70;;;21.70;54.50;;;;;;5156480;28;20072;-49
2021/12/02 06:07:25;;;;;;;12.02;1.55;;;21.80;54.60;;;;;;5159386;28;20053;-55
2021/12/02 06:09:58;;;;;;;17.13;1.85;;;21.80;54.60;;;;;;5171402;28;21905;-51
2021/12/02 06:12:30;;;;;;;10.37;1.40;;;21.80;54.50;;;;;;5161484;28;20053;-51
2021/12/02 06:15:03;;;;;;;13.00;2.00;;;21.80;54.30;;;;;;5171956;28;20049;-58
2021/12/02 06:17:36;;;;;;;11.87;1.87;;;21.80;54.20;;;;;;5168502;28;20037;-55
2021/12/02 06:20:09;;;;;;;10.87;1.43;;;21.90;54.10;;;;;;5182888;28;20041;-50
2021/12/02 06:22:42;;;;;;;;;;;21.80;54.60;;;;;;5162750;28;20855;-56
2021/12/02 06:25:43;;;;;;;11.57;1.40;;;21.80;54.00;;;;;;5159612;28;20853;-50
2021/12/02 06:28:08;;;;;;;10.63;1.48;;;21.80;53.90;;;;;;5173134;28;20060;-52
2021/12/02 06:30:40;;;;;;;12.40;1.20;;;21.80;53.90;;;;;;5164127;28;20045;-51
2021/12/02 06:33:14;;;;;;;11.35;1.85;;;21.80;53.90;;;;;;5154276;28;20405;-53
2021/12/02 06:35:47;;;;;;;11.27;1.75;;;21.80;53.90;;;;;;5158326;28;20046;-51
2021/12/02 06:38:19;;;;;;;12.07;1.85;;;21.90;53.90;;;;;;5161756;28;20045;-57
2021/12/02 06:40:54;;;;;;;7.57;1.40;;;21.80;53.80;;;;;;5178402;28;20052;-52
2021/12/02 06:43:27;;;;;;;12.55;1.95;;;21.90;53.70;;;;;;5194230;28;20057;-47
2021/12/02 06:45:59;;;;;;;8.30;1.55;;;21.90;53.60;;;;;;5197112;28;20053;-47
2021/12/02 06:48:32;;;;;;;9.77;1.73;;;21.90;53.50;;;;;;5185595;28;20528;-57
2021/12/02 06:51:04;;;;;;;5.68;1.10;;;21.90;53.40;;;;;;5186165;28;20049;-48
2021/12/02 06:53:37;;;;;;;6.68;1.67;;;21.90;53.30;;;;;;5193546;28;20049;-50
2021/12/02 06:56:09;;;;;;;8.00;1.50;;;21.80;53.20;;;;;;5186420;28;20056;-53
2021/12/02 06:58:42;;;;;;;6.82;1.55;;;21.90;53.00;;;;;;5192017;28;20064;-47
2021/12/02 07:01:14;;;;;;;3.35;1.20;;;21.80;50.90;;;;;;5212519;28;20540;-48
2021/12/02 07:03:47;;;;;;;2.50;1.20;;;21.80;49.80;;;;;;5195221;28;20501;-54
2021/12/02 07:06:19;;;;;;;5.47;1.30;;;21.80;49.40;;;;;;5196563;28;20043;-51
2021/12/02 07:08:52;;;;;;;4.53;0.90;;;21.70;48.70;;;;;;5195948;28;20625;-50
2021/12/02 07:11:24;;;;;;;2.15;1.20;;;21.70;48.30;;;;;;5195787;28;20046;-50
2021/12/02 07:14:02;;;;;;;5.00;1.30;;;21.70;47.90;;;;;;5195759;28;20068;-49
2021/12/02 07:16:35;;;;;;;2.92;0.90;;;21.60;47.60;;;;;;5195445;28;20057;-49
2021/12/02 07:19:09;;;;;;;5.68;1.98;;;21.60;47.30;;;;;;5175682;28;20493;-54
2021/12/02 07:21:42;;;;;;;2.55;1.25;;;21.50;47.20;;;;;;5194071;28;20045;-49
2021/12/02 07:24:15;;;;;;;4.20;1.40;;;21.50;47.10;;;;;;5194541;28;20052;-51
2021/12/02 07:27:08;;;;;;;1.05;0.90;;;21.50;46.80;;;;;;5208044;28;20386;-55
2021/12/02 07:29:41;;;;;;;1.77;0.90;;;21.40;46.60;;;;;;5190761;28;20061;-52
2021/12/02 07:32:14;;;;;;;;;;;21.40;46.50;;;;;;5194252;28;20060;-55
2021/12/02 07:34:49;;;;;;;2.92;1.00;;;21.30;46.20;;;;;;5188208;28;19925;-49
2021/12/02 07:37:23;;;;;;;2.95;1.08;;;21.30;46.50;;;;;;5195084;28;20045;-51
2021/12/02 07:39:56;;;;;;;1.70;0.82;;;21.30;46.20;;;;;;5203593;22;20477;-55
2021/12/02 07:42:30;;;;;;;1.17;0.88;;;21.30;46.00;;;;;;5184284;28;20065;-52
2021/12/02 07:45:08;;;;;;;1.35;0.88;;;21.30;45.90;;;;;;5185620;28;20045;-55
2021/12/02 07:47:41;;;;;;;1.48;0.60;;;21.20;45.80;;;;;;5187526;28;20076;-56
2021/12/02 07:50:15;;;;;;;0.90;0.77;;;21.20;45.60;;;;;;5174674;28;20291;-56
2021/12/02 07:52:58;;;;;;;2.05;0.90;;;21.20;45.50;;;;;;5172697;28;20053;-54
2021/12/02 07:55:34;;;;;;;17.63;1.10;;;21.10;45.40;;;;;;5173564;28;20486;-54
2021/12/02 07:58:09;;;;;;;1.80;0.75;;;21.10;45.40;;;;;;5173819;28;20045;-55
2021/12/02 08:00:42;;;;;;;1.65;0.90;;;21.10;45.40;;;;;;5172758;28;20060;-51
2021/12/02 08:03:14;;;;;;;2.90;0.80;;;21.10;45.30;;;;;;5189592;28;20065;-58
2021/12/02 08:05:48;;;;;;;;;;;21.00;45.90;;;;;;5174963;28;20164;-56
2021/12/02 08:08:20;;;;;;;1.65;0.70;;;21.00;45.10;;;;;;5173721;28;19932;-57
2021/12/02 08:10:56;;;;;;;2.60;0.88;;;21.00;45.30;;;;;;5174466;28;20444;-55
2021/12/02 08:13:30;;;;;;;0.75;0.65;;;21.00;45.20;;;;;;5175725;28;20576;-56
2021/12/02 08:16:05;;;;;;;1.75;1.02;;;21.00;45.10;;;;;;5177606;28;20138;-52
2021/12/02 08:18:37;;;;;;;1.20;0.80;;;21.00;45.10;;;;;;5167018;28;20074;-53
2021/12/02 08:21:10;;;;;;;0.93;0.70;;;21.00;45.20;;;;;;5188761;28;20449;-56
2021/12/02 08:23:42;;;;;;;1.80;0.90;;;21.00;45.20;;;;;;5173571;28;20057;-56
2021/12/02 08:26:16;;;;;;;1.55;0.70;;;21.00;45.20;;;;;;5175168;28;20037;-55
2021/12/02 08:28:48;;;;;;;2.72;0.75;;;21.00;45.10;;;;;;5175007;28;20046;-55
2021/12/02 08:31:21;;;;;;;1.88;0.80;;;21.00;45.10;;;;;;5169237;28;20049;-55
2021/12/02 08:33:54;;;;;;;1.95;0.80;;;20.90;44.90;;;;;;5176193;28;20240;-54
2021/12/02 08:36:29;;;;;;;1.45;0.65;;;20.90;45.00;;;;;;5174229;28;20510;-56
2021/12/02 08:39:06;;;;;;;1.23;0.70;;;20.90;44.90;;;;;;5174533;28;20618;-57
2021/12/02 08:41:43;;;;;;;1.17;0.73;;;20.90;44.90;;;;;;5173650;28;20041;-54
2021/12/02 08:44:17;;;;;;;1.10;0.70;;;20.90;44.80;;;;;;5174195;28;20394;-52
2021/12/02 08:46:51;;;;;;;1.63;0.68;;;20.90;44.70;;;;;;5173666;28;20043;-57
2021/12/02 08:49:23;;;;;;;1.60;0.60;;;20.90;44.60;;;;;;5174664;28;20074;-53
2021/12/02 08:51:56;;;;;;;0.80;0.80;;;20.90;44.60;;;;;;5188411;28;20057;-55
2021/12/02 08:54:28;;;;;;;2.25;0.52;;;20.90;44.60;;;;;;5168775;28;20480;-56
2021/12/02 08:57:01;;;;;;;3.20;0.88;;;20.90;44.50;;;;;;5173668;28;20056;-56
2021/12/02 08:59:34;;;;;;;1.27;0.80;;;20.90;44.40;;;;;;5190292;28;20062;-52
2021/12/02 09:02:06;;;;;;;1.00;0.70;;;20.90;44.40;;;;;;5171438;28;20061;-54
2021/12/02 09:04:40;;;;;;;0.77;0.63;;;20.80;44.30;;;;;;5172512;28;20539;-56
2021/12/02 09:07:12;;;;;;;1.77;0.70;;;20.80;44.80;;;;;;5173465;28;20129;-53
2021/12/02 09:09:45;;;;;;;1.00;0.60;;;20.90;44.20;;;;;;5172651;28;20060;-55
2021/12/02 09:12:18;;;;;;;1.80;0.50;;;20.80;44.10;;;;;;5175483;28;20042;-53
2021/12/02 09:14:51;;;;;;;1.77;0.77;;;20.80;44.20;;;;;;5174821;28;20037;-55
2021/12/02 09:17:24;;;;;;;1.35;0.70;;;20.80;44.00;;;;;;5175087;28;20046;-52
2021/12/02 09:19:56;;;;;;;2.20;0.70;;;20.80;44.80;;;;;;5153904;28;20060;-55
2021/12/02 09:22:29;;;;;;;3.35;1.02;;;20.80;44.00;;;;;;5138474;28;20393;-55
2021/12/02 09:25:05;;;;;;;1.00;0.52;;;20.80;43.90;;;;;;5145331;28;20054;-53
2021/12/02 09:27:38;;;;;;;0.98;0.60;;;20.80;43.90;;;;;;5143689;28;20053;-58
2021/12/02 09:30:11;;;;;;;1.45;0.70;;;20.80;43.90;;;;;;5158805;28;20057;-56
2021/12/02 09:32:44;;;;;;;1.77;0.77;;;20.70;44.00;;;;;;5164086;28;20437;-57
2021/12/02 09:35:16;;;;;;;1.53;0.60;;;20.80;44.50;;;;;;5155189;28;20743;-55
2021/12/02 09:37:49;;;;;;;1.73;0.60;;;20.80;44.60;;;;;;5160839;28;20053;-55
2021/12/02 09:40:22;;;;;;;1.15;0.70;;;20.80;45.00;;;;;;5159120;28;20077;-55
2021/12/02 09:42:54;;;;;;;1.23;0.45;;;20.90;45.20;;;;;;5164498;28;20049;-55
2021/12/02 09:45:27;;;;;;;1.77;0.73;;;21.00;45.30;;;;;;5158720;28;20046;-54
2021/12/02 09:48:00;;;;;;;1.10;0.70;;;21.00;45.60;;;;;;5163944;28;20054;-56
2021/12/02 09:50:36;;;;;;;1.55;0.70;;;21.10;45.70;;;;;;5163708;28;20040;-55
2021/12/02 09:53:16;;;;;;;1.17;0.60;;;21.10;45.70;;;;;;5165475;28;20042;-55
2021/12/02 09:56:02;;;;;;;2.05;0.70;;;21.10;45.80;;;;;;5151820;28;20176;-56
2021/12/02 09:58:34;;;;;;;2.92;1.13;;;21.20;46.00;;;;;;5164596;28;20042;-54
2021/12/02 10:01:09;;;;;;;1.60;0.70;;;21.20;46.30;;;;;;5175504;28;20061;-55
2021/12/02 10:03:45;;;;;;;0.88;0.50;;;21.20;46.60;;;;;;5158802;28;20409;-55
2021/12/02 10:06:23;;;;;;;0.75;0.65;;;21.30;46.60;;;;;;5165049;28;20053;-52
2021/12/02 10:09:22;;;;;;;1.13;0.60;;;21.30;46.70;;;;;;5165942;28;20050;-55
2021/12/02 10:11:59;;;;;;;2.15;0.82;;;21.30;46.80;;;;;;5168759;28;20620;-53
2021/12/02 10:14:35;;;;;;;0.88;0.50;;;21.40;46.80;;;;;;5165990;28;20053;-54
2021/12/02 10:17:35;;;;;;;1.48;0.70;;;21.40;46.90;;;;;;5178157;28;20061;-56
2021/12/02 10:20:23;;;;;;;3.58;0.68;;;21.40;46.90;;;;;;5178066;28;20045;-55
2021/12/02 10:23:19;;;;;;;2.42;0.95;;;21.40;47.60;;;;;;5178163;28;20065;-56
2021/12/02 10:25:58;;;;;;;2.13;0.80;;;21.40;47.00;;;;;;5179662;28;20489;-56
2021/12/02 10:28:35;;;;;;;0.88;0.65;;;21.50;47.10;;;;;;5177524;28;20050;-55
2021/12/02 10:31:09;;;;;;;2.05;0.95;;;21.50;47.10;;;;;;5178927;28;20046;-55
2021/12/02 10:33:47;;;;;;;1.58;0.52;;;21.50;47.20;;;;;;5177533;28;20052;-55
2021/12/02 10:36:35;;;;;;;2.95;0.95;;;21.50;47.20;;;;;;5190895;28;20050;-55
2021/12/02 10:39:18;;;;;;;5.30;0.90;;;21.50;47.20;;;;;;5177745;28;20050;-56
2021/12/02 10:42:08;;;;;;;3.38;0.80;;;21.50;47.20;;;;;;5177738;28;21085;-56
2021/12/02 10:44:43;;;;;;;3.20;0.60;;;21.50;47.20;;;;;;5175643;28;20422;-53
2021/12/02 10:47:16;;;;;;;2.67;0.65;;;21.60;47.30;;;;;;5177759;28;20054;-52
2021/12/02 10:49:53;;;;;;;2.75;0.70;;;21.60;47.30;;;;;;5176396;28;20518;-53
2021/12/02 10:52:31;;;;;;;1.38;0.77;;;21.60;47.40;;;;;;5174624;28;20038;-56
2021/12/02 10:55:07;;;;;;;1.52;0.52;;;21.70;47.50;;;;;;5175121;28;20046;-51
2021/12/02 10:57:49;;;;;;;1.08;0.80;;;21.70;47.50;;;;;;5175700;28;20053;-52
2021/12/02 11:00:27;;;;;;;1.42;0.80;;;21.70;47.50;;;;;;5172903;28;20417;-53
2021/12/02 11:03:07;;;;;;;0.75;0.50;;;21.70;47.50;;;;;;5189335;28;20042;-56
2021/12/02 11:05:47;;;;;;;1.10;0.63;;;21.70;47.50;;;;;;5176306;28;20379;-51
2021/12/02 11:08:21;;;;;;;0.60;0.50;;;21.70;47.50;;;;;;5173699;28;20069;-54
2021/12/02 11:10:53;;;;;;;;;;;21.70;47.60;;;;;;5178517;28;20045;-55
2021/12/02 11:13:28;;;;;;;1.42;0.60;;;21.70;47.60;;;;;;5177642;28;19925;-56
2021/12/02 11:16:00;;;;;;;1.70;0.90;;;21.70;47.70;;;;;;5173779;28;20038;-56
2021/12/02 11:18:34;;;;;;;1.17;0.45;;;21.70;47.80;;;;;;5175077;28;20374;-54
2021/12/02 11:21:19;;;;;;;1.65;0.65;;;21.70;47.80;;;;;;5174295;28;20064;-54
2021/12/02 11:23:52;;;;;;;1.45;0.75;;;21.70;47.80;;;;;;5173789;28;20053;-53
2021/12/02 11:26:24;;;;;;;1.90;0.93;;;21.70;47.80;;;;;;5174166;28;20049;-54
2021/12/02 11:28:57;;;;;;;2.03;0.60;;;21.70;47.90;;;;;;5191497;28;20431;-55
2021/12/02 11:31:29;;;;;;;1.38;0.80;;;21.70;47.90;;;;;;5177715;28;20045;-55
2021/12/02 11:34:10;;;;;;;1.92;0.63;;;21.80;47.80;;;;;;5177798;28;20057;-55
2021/12/02 11:36:45;;;;;;;0.70;0.47;;;21.80;47.80;;;;;;5173235;28;20501;-54
2021/12/02 11:39:18;;;;;;;0.73;0.40;;;21.80;47.90;;;;;;5176832;28;20053;-53
2021/12/02 11:41:50;;;;;;;1.63;0.77;;;21.80;47.90;;;;;;5176507;28;20045;-55
2021/12/02 11:44:23;;;;;;;1.40;0.60;;;21.80;47.90;;;;;;5191883;28;20062;-57
2021/12/02 11:46:55;;;;;;;1.70;0.73;;;21.80;48.00;;;;;;5176383;28;20402;-54
2021/12/02 11:49:28;;;;;;;0.73;0.60;;;21.90;48.00;;;;;;5175319;28;20037;-55
2021/12/02 11:52:00;;;;;;;1.48;0.70;;;22.00;47.90;;;;;;5175668;28;20050;-56
2021/12/02 11:54:33;;;;;;;0.85;0.73;;;22.00;47.80;;;;;;5175098;28;20038;-54
2021/12/02 11:57:06;;;;;;;1.65;0.50;;;22.10;47.80;;;;;;5176796;28;20053;-55
2021/12/02 11:59:38;;;;;;;1.33;0.70;;;22.10;47.70;;;;;;5176862;28;20509;-55
2021/12/02 12:02:16;;;;;;;0.60;0.60;;;22.10;47.70;;;;;;5176256;28;20054;-57
2021/12/02 12:04:55;;;;;;;1.50;0.70;;;22.10;47.70;;;;;;5177177;28;20045;-55
2021/12/02 12:07:54;;;;;;;3.15;0.68;;;22.10;47.60;;;;;;5173636;28;20046;-55
2021/12/02 12:10:36;;;;;;;0.85;0.50;;;22.10;47.60;;;;;;5172857;28;20526;-52
2021/12/02 12:13:12;;;;;;;1.33;0.70;;;22.10;47.70;;;;;;5174085;28;20050;-56
2021/12/02 12:15:50;;;;;;;1.00;0.68;;;22.10;47.80;;;;;;5173494;28;20042;-54
2021/12/02 12:18:26;;;;;;;2.53;0.50;;;22.10;47.90;;;;;;5171244;28;20030;-57
2021/12/02 12:21:02;;;;;;;4.93;0.68;;;22.10;48.00;;;;;;5168913;28;20544;-54
2021/12/02 12:23:37;;;;;;;1.55;0.63;;;22.10;47.90;;;;;;5174758;28;20072;-55
2021/12/02 12:26:36;;;;;;;0.68;0.55;;;22.10;47.90;;;;;;5167056;28;20050;-54
2021/12/02 12:29:09;;;;;;;1.40;0.50;;;22.10;47.90;;;;;;5164224;28;20219;-57
2021/12/02 12:31:55;;;;;;;0.70;0.60;;;22.10;47.90;;;;;;5184537;28;20042;-52
2021/12/02 12:34:29;;;;;;;1.25;0.60;;;22.10;48.00;;;;;;5163477;28;20045;-55
2021/12/02 12:37:48;;;;;;;1.35;0.63;;;22.10;48.00;;;;;;5165414;28;20384;-56
2021/12/02 12:40:39;;;;;;;0.80;0.50;;;22.10;48.10;;;;;;5166219;28;20453;-54
2021/12/02 12:43:11;;;;;;;0.85;0.65;;;22.00;48.20;;;;;;5167774;28;20045;-54
2021/12/02 12:45:45;;;;;;;1.25;0.70;;;22.00;48.30;;;;;;5164013;28;20077;-55
2021/12/02 12:48:27;;;;;;;;;;;22.10;48.40;;;;;;5163309;28;20705;-56
2021/12/02 12:51:19;;;;;;;1.05;0.52;;;22.00;48.40;;;;;;5173617;28;19925;-53
2021/12/02 12:53:54;;;;;;;1.38;0.70;;;22.00;48.50;;;;;;5174166;28;20524;-53
2021/12/02 12:56:33;;;;;;;1.23;0.70;;;22.00;48.50;;;;;;5174338;28;20054;-55
2021/12/02 12:59:18;;;;;;;1.77;0.80;;;22.00;48.60;;;;;;5174251;28;20046;-51
2021/12/02 13:01:59;;;;;;;1.77;0.73;;;22.00;48.60;;;;;;5166608;28;20073;-55
2021/12/02 13:04:51;;;;;;;1.35;0.70;;;22.00;48.60;;;;;;5168296;28;20418;-55
2021/12/02 13:08:02;;;;;;;0.80;0.50;;;21.90;48.60;;;;;;5164718;28;20502;-56
2021/12/02 13:10:55;;;;;;;2.72;0.60;;;22.00;48.80;;;;;;5165513;28;20046;-53
2021/12/02 13:13:33;;;;;;;3.30;0.77;;;22.00;48.80;;;;;;5163939;28;20049;-56
2021/12/02 13:16:10;;;;;;;2.92;0.40;;;22.00;48.80;;;;;;5165696;28;20077;-52
2021/12/02 13:18:50;;;;;;;6.47;1.38;;;22.00;48.80;;;;;;5168406;28;20042;-54
2021/12/02 13:21:31;;;;;;;1.83;0.68;;;22.00;48.80;;;;;;5170883;28;20042;-52
2021/12/02 13:24:20;;;;;;;1.27;0.52;;;22.00;48.90;;;;;;5167279;28;20049;-54
2021/12/02 13:26:52;;;;;;;1.67;0.70;;;22.00;48.80;;;;;;5186146;28;20486;-56
2021/12/02 13:29:34;;;;;;;3.08;0.60;;;22.00;48.80;;;;;;5172299;28;20077;-52
2021/12/02 13:32:09;;;;;;;4.22;0.50;;;22.00;48.80;;;;;;5176473;28;20042;-53
2021/12/02 13:34:41;;;;;;;0.93;0.60;;;22.10;48.80;;;;;;5174515;28;21411;-50
2021/12/02 13:37:15;;;;;;;1.25;0.60;;;22.10;48.70;;;;;;5161152;28;20041;-54
2021/12/02 13:39:47;;;;;;;2.75;0.65;;;22.10;48.70;;;;;;5156545;28;20450;-54
2021/12/02 13:42:20;;;;;;;4.82;0.55;;;22.10;48.80;;;;;;5168214;23;20493;-46
2021/12/02 13:44:53;;;;;;;0.70;0.40;;;22.10;48.80;;;;;;5153135;28;20053;-48
2021/12/02 13:47:35;;;;;;;;;;;22.10;48.90;;;;;;5143431;28;20305;-56
2021/12/02 13:50:12;;;;;;;1.15;0.60;;;22.00;48.90;;;;;;5118955;28;19933;-48